createdAt,value
2019-04-11T04:00:38.688Z,53.68
2019-04-11T04:01:38.125Z,54.20
2019-04-11T04:02:37.232Z,54.10
2019-04-11T04:03:36.779Z,54.61
2019-04-11T04:04:37.099Z,54.30
2019-04-11T04:05:36.895Z,54.61
2019-04-11T04:06:37.380Z,54.80
2019-04-11T04:07:36.053Z,54.69
2019-04-11T04:08:44.459Z,54.80
2019-04-11T04:09:37.253Z,54.07
2019-04-11T04:10:36.212Z,54.59
2019-04-11T04:11:35.961Z,54.28
2019-04-11T04:12:37.696Z,54.17
2019-04-11T04:13:36.786Z,54.05
2019-04-11T04:14:37.186Z,54.05
2019-04-11T04:15:44.216Z,54.46
2019-04-11T04:16:44.735Z,54.57
2019-04-11T04:17:36.850Z,54.13
2019-04-11T04:18:43.725Z,54.33
2019-04-11T04:19:43.819Z,53.74
2019-04-11T04:20:37.030Z,54.15
2019-04-11T04:21:35.803Z,53.63
2019-04-11T04:22:37.610Z,53.84
2019-04-11T04:23:37.805Z,53.84
2019-04-11T04:24:39.781Z,53.74
2019-04-11T04:25:36.739Z,54.15
2019-04-11T04:26:35.768Z,54.02
2019-04-11T04:27:36.020Z,54.02
2019-04-11T04:28:37.498Z,54.02
2019-04-11T04:29:37.673Z,53.71
2019-04-11T04:30:36.160Z,53.61
2019-04-11T04:31:35.718Z,54.13
2019-04-11T04:32:36.293Z,54.13
2019-04-11T04:33:37.750Z,54.02
2019-04-11T04:34:36.509Z,54.02
2019-04-11T04:35:36.363Z,54.23
2019-04-11T04:36:35.653Z,54.13
2019-04-11T04:37:35.638Z,54.23
2019-04-11T04:38:37.640Z,53.61
2019-04-11T04:39:37.053Z,53.71
2019-04-11T04:40:54.159Z,53.71
2019-04-11T04:41:43.386Z,53.71
2019-04-11T04:42:43.072Z,53.92
2019-04-11T04:43:36.640Z,53.89
2019-04-11T04:44:35.568Z,53.71
2019-04-11T04:45:55.193Z,53.61
2019-04-11T04:46:52.509Z,53.48
2019-04-11T04:47:46.184Z,53.89
2019-04-11T04:48:38.030Z,54.02
2019-04-11T04:49:36.498Z,53.89
2019-04-11T04:50:36.643Z,53.48
2019-04-11T04:51:37.118Z,53.38
2019-04-11T04:52:36.716Z,52.95
2019-04-11T04:53:35.712Z,53.06
2019-04-11T04:54:36.487Z,52.64
2019-04-11T04:55:36.740Z,52.64
2019-04-11T04:56:36.919Z,52.95
2019-04-11T04:57:37.398Z,52.44
2019-04-11T04:58:35.429Z,53.06
2019-04-11T04:59:37.495Z,53.06
2019-04-11T05:00:35.404Z,52.75
2019-04-11T05:01:37.165Z,52.95
2019-04-11T05:02:37.151Z,52.72
2019-04-11T05:03:35.599Z,52.83
2019-04-11T05:04:36.114Z,52.93
2019-04-11T05:05:35.740Z,52.31
2019-04-11T05:06:36.498Z,52.20
2019-04-11T05:07:40.167Z,52.10
2019-04-11T05:08:36.372Z,52.41
2019-04-11T05:09:36.171Z,52.10
2019-04-11T05:10:35.948Z,52.10
2019-04-11T05:11:36.151Z,51.97
2019-04-11T05:12:36.561Z,51.97
2019-04-11T05:13:36.653Z,51.25
2019-04-11T05:14:35.248Z,51.84
2019-04-11T05:15:36.479Z,51.53
2019-04-11T05:16:35.732Z,51.74
2019-04-11T05:17:36.319Z,51.95
2019-04-11T05:18:36.198Z,51.53
2019-04-11T05:19:35.191Z,51.95
2019-04-11T05:20:36.312Z,51.95
2019-04-11T05:21:35.233Z,51.61
2019-04-11T05:22:35.288Z,51.12
2019-04-11T05:23:35.149Z,51.09
2019-04-11T05:24:35.142Z,51.51
2019-04-11T05:25:35.130Z,50.89
2019-04-11T05:26:35.490Z,50.45
2019-04-11T05:27:35.754Z,50.55
2019-04-11T05:28:35.365Z,50.24
2019-04-11T05:29:35.619Z,50.13
2019-04-11T05:30:36.329Z,50.32
2019-04-11T05:31:35.068Z,50.63
2019-04-11T05:32:35.396Z,50.63
2019-04-11T05:33:35.057Z,50.63
2019-04-11T05:34:35.222Z,50.71
2019-04-11T05:35:36.171Z,49.99
2019-04-11T05:36:35.014Z,49.76
2019-04-11T05:37:36.180Z,49.32
2019-04-11T05:38:35.956Z,48.99
2019-04-11T05:39:35.917Z,48.65
2019-04-11T05:40:34.997Z,47.51
2019-04-11T05:41:34.960Z,44.90
2019-04-11T05:42:35.540Z,42.85
2019-04-11T05:43:37.322Z,42.52
2019-04-11T05:44:37.586Z,42.05
2019-04-11T05:45:35.924Z,41.39
2019-04-11T05:46:47.292Z,39.56
2019-04-11T05:47:35.892Z,38.12
2019-04-11T05:48:34.886Z,36.53
2019-04-11T05:49:38.454Z,36.47
2019-04-11T05:50:36.170Z,34.70
2019-04-11T05:51:40.882Z,34.25
2019-04-11T05:52:36.674Z,34.62
2019-04-11T05:53:36.598Z,33.76
2019-04-11T05:54:36.472Z,33.83
2019-04-11T05:55:34.808Z,32.29
2019-04-11T05:56:35.438Z,32.05
2019-04-11T05:57:38.095Z,32.14
2019-04-11T05:58:34.774Z,32.11
2019-04-11T05:59:34.829Z,31.69
2019-04-11T06:00:34.771Z,31.16
2019-04-11T06:01:34.761Z,31.14
2019-04-11T06:02:35.327Z,31.33
2019-04-11T06:03:39.429Z,31.71
2019-04-11T06:04:36.366Z,31.60
2019-04-11T06:05:36.022Z,31.29
2019-04-11T06:06:38.558Z,31.67
2019-04-11T06:07:40.067Z,31.37
2019-04-11T06:08:35.768Z,31.46
2019-04-11T06:09:38.171Z,31.26
2019-04-11T06:10:37.049Z,30.84
2019-04-11T06:11:36.867Z,30.93
2019-04-11T06:12:35.902Z,30.52
2019-04-11T06:13:34.616Z,30.43
2019-04-11T06:14:35.385Z,31.31
2019-04-11T06:15:36.315Z,30.90
2019-04-11T06:16:39.537Z,30.49
2019-04-11T06:17:36.520Z,30.60
2019-04-11T06:18:37.789Z,30.36
2019-04-11T06:19:35.549Z,30.27
2019-04-11T06:20:35.583Z,30.55
2019-04-11T06:21:34.544Z,30.75
2019-04-11T06:22:34.561Z,30.65
2019-04-11T06:23:35.088Z,30.74
2019-04-11T06:24:34.495Z,30.63
2019-04-11T06:25:37.184Z,30.63
2019-04-11T06:26:34.603Z,30.54
2019-04-11T06:27:36.056Z,30.44
2019-04-11T06:28:34.479Z,30.42
2019-04-11T06:29:34.888Z,30.72
2019-04-11T06:30:34.651Z,30.32
2019-04-11T06:31:34.432Z,30.92
2019-04-11T06:32:34.409Z,31.52
2019-04-11T06:33:34.538Z,30.72
2019-04-11T06:34:35.477Z,30.82
2019-04-11T06:35:34.387Z,31.22
2019-04-11T06:36:41.902Z,31.52
2019-04-11T06:37:41.896Z,30.32
2019-04-11T06:38:42.853Z,30.80
2019-04-11T06:39:41.882Z,30.91
2019-04-11T06:40:34.699Z,31.01
2019-04-11T06:41:34.759Z,30.41
2019-04-11T06:42:35.040Z,31.62
2019-04-11T06:43:34.296Z,31.02
2019-04-11T06:44:34.325Z,31.12
2019-04-11T06:45:34.269Z,31.12
2019-04-11T06:46:35.420Z,31.30
2019-04-11T06:47:35.264Z,31.21
2019-04-11T06:48:34.254Z,31.29
2019-04-11T06:49:34.251Z,31.59
2019-04-11T06:50:35.377Z,31.57
2019-04-11T06:51:34.200Z,31.57
2019-04-11T06:52:34.962Z,31.18
2019-04-11T06:53:34.390Z,31.49
2019-04-11T06:54:34.176Z,31.70
2019-04-11T06:55:35.034Z,32.22
2019-04-11T06:56:34.883Z,32.32
2019-04-11T06:57:34.232Z,33.03
2019-04-11T06:58:35.142Z,33.45
2019-04-11T06:59:34.482Z,33.15
2019-04-11T07:00:34.105Z,33.15
2019-04-11T07:01:34.271Z,33.47
2019-04-11T07:02:34.182Z,34.23
2019-04-11T07:03:34.074Z,35.76
2019-04-11T07:04:34.070Z,35.68
2019-04-11T07:05:35.155Z,35.78
2019-04-11T07:06:34.033Z,36.10
2019-04-11T07:07:35.976Z,35.48
2019-04-11T07:08:34.257Z,35.98
2019-04-11T07:09:34.945Z,35.98
2019-04-11T07:10:34.186Z,36.43
2019-04-11T07:11:34.190Z,36.45
2019-04-11T07:12:34.949Z,35.63
2019-04-11T07:13:33.959Z,35.39
2019-04-11T07:14:33.944Z,35.78
2019-04-11T07:15:33.945Z,35.26
2019-04-11T07:16:34.117Z,34.56
2019-04-11T07:17:33.962Z,35.75
2019-04-11T07:18:33.921Z,35.25
2019-04-11T07:19:35.120Z,35.85
2019-04-11T07:20:33.877Z,35.76
2019-04-11T07:21:33.872Z,35.55
2019-04-11T07:22:34.783Z,35.86
2019-04-11T07:23:33.848Z,36.07
2019-04-11T07:24:33.848Z,36.07
2019-04-11T07:25:33.820Z,36.46
2019-04-11T07:26:35.035Z,35.56
2019-04-11T07:27:34.539Z,36.57
2019-04-11T07:28:33.792Z,36.28
2019-04-11T07:29:33.866Z,36.38
2019-04-11T07:30:33.772Z,37.28
2019-04-11T07:31:33.761Z,37.28
2019-04-11T07:32:34.270Z,37.20
2019-04-11T07:33:33.735Z,37.40
2019-04-11T07:34:36.193Z,37.40
2019-04-11T07:35:33.759Z,37.90
2019-04-11T07:36:33.922Z,38.12
2019-04-11T07:37:33.697Z,38.22
2019-04-11T07:38:33.944Z,38.32
2019-04-11T07:39:33.761Z,38.34
2019-04-11T07:40:35.132Z,38.64
2019-04-11T07:41:34.012Z,39.36
2019-04-11T07:42:35.759Z,38.66
2019-04-11T07:43:33.660Z,38.66
2019-04-11T07:44:34.087Z,39.48
2019-04-11T07:45:34.380Z,39.28
2019-04-11T07:46:33.592Z,39.80
2019-04-11T07:47:33.593Z,39.80
2019-04-11T07:48:33.798Z,39.70
2019-04-11T07:49:33.568Z,39.50
2019-04-11T07:50:33.559Z,40.62
2019-04-11T07:51:34.348Z,40.33
2019-04-11T07:52:34.501Z,40.22
2019-04-11T07:53:33.778Z,40.33
2019-04-11T07:54:34.594Z,40.33
2019-04-11T07:55:34.429Z,40.53
2019-04-11T07:56:33.494Z,40.42
2019-04-11T07:57:33.480Z,40.62
2019-04-11T13:57:35.725Z,43.89
2019-04-11T14:06:47.148Z,44.09
2019-04-11T14:30:08.916Z,43.93
2019-04-11T14:35:58.701Z,44.74
2019-04-11T14:40:15.848Z,44.56
2019-04-11T14:41:13.010Z,44.44
2019-04-11T14:42:13.058Z,44.46
2019-04-11T14:43:13.667Z,44.24
2019-04-11T14:47:08.142Z,44.66
2019-04-11T14:50:45.162Z,44.06
2019-04-11T14:51:46.270Z,44.56
2019-04-11T14:55:31.498Z,44.46
2019-04-11T15:04:33.159Z,44.38
2019-04-11T15:15:49.972Z,45.23
2019-04-11T15:27:00.791Z,45.33
2019-04-11T15:30:32.811Z,45.25
2019-04-11T15:31:43.315Z,45.76
2019-04-11T15:40:49.824Z,45.37
